Terminal Aerodrome Forecast
Issued by NWS

Current Version | Previous Version | Graphics & Text | Print | Product List | Glossary On
Versions: 1 2 3 4 5 6 7 8 9 10 11 12 13 14 15 16
000
FTUS41 KRNK 141730
TAFLWB
TAF
KLWB 141730Z 1418/1518 20010KT P6SM SCT040 OVC120
     FM142100 18007KT P6SM -SHRA OVC035
     FM150300 16005KT 4SM -SHRA OVC012
     FM151000 19006KT 5SM SHRA BR OVC004
     FM151500 26010KT 5SM -SHRA BR OVC008=

USA.gov is the U.S. government's official web portal to all federal, state and local government web resources and services.